Time;durP1;ratioP1;P1;durP2;ratioP2;P2;SDS_P1;SDS_P2;PMS_P1;PMS_P2;Temp;Humidity;BMP_temperature;BMP_pressure;BME280_temperature;BME280_humidity;BME280_pressure;Samples;Min_cycle;Max_cycle;Signal;HPM_P1;HPM_P2
2023/02/28 00:00:20;;;;;;;6.68;3.83;;;;;;;7.63;70.85;101869.72;4945009;29;20043;-88
2023/02/28 00:02:46;;;;;;;6.55;3.80;;;;;;;7.54;71.11;101881.13;4922101;29;20055;-88
2023/02/28 00:05:13;;;;;;;;;;;;;;;7.66;70.71;101890.94;4918131;29;20123;-89
2023/02/28 00:07:39;;;;;;;4.80;3.17;;;;;;;7.63;70.73;101883.13;4929346;29;19980;-88
2023/02/28 00:10:08;;;;;;;5.68;4.00;;;;;;;7.43;71.26;101884.56;4928712;29;20484;-87
2023/02/28 00:12:35;;;;;;;5.75;4.18;;;;;;;7.46;71.15;101875.47;4908866;29;20040;-85
2023/02/28 00:15:05;;;;;;;5.53;3.65;;;;;;;7.46;71.51;101899.56;4914855;29;20039;-90
2023/02/28 00:17:33;;;;;;;5.57;3.58;;;;;;;7.42;71.75;101898.91;4950026;29;20020;-91
2023/02/28 00:20:04;;;;;;;5.20;3.67;;;;;;;7.47;71.27;101890.53;4914614;29;20134;-89
2023/02/28 00:22:30;;;;;;;5.97;3.72;;;;;;;7.55;71.18;101898.88;4907951;29;20522;-88
2023/02/28 00:24:58;;;;;;;5.60;3.80;;;;;;;7.55;70.98;101882.84;4944306;29;20059;-90
2023/02/28 00:27:25;;;;;;;5.20;3.55;;;;;;;7.63;71.18;101888.47;4933466;29;20046;-89
2023/02/28 00:29:54;;;;;;;6.18;3.90;;;;;;;7.55;70.95;101889.03;4921130;29;20091;-90
2023/02/28 00:32:21;;;;;;;5.68;3.80;;;;;;;7.52;71.08;101899.13;4928645;29;20571;-89
2023/02/28 00:34:47;;;;;;;5.65;3.63;;;;;;;7.45;71.07;101893.34;4921890;29;20044;-87
2023/02/28 00:37:14;;;;;;;5.22;3.90;;;;;;;7.23;71.96;101877.97;4948002;29;20027;-88
2023/02/28 00:39:39;;;;;;;;;;;;;;;7.21;72.43;101890.63;4917112;29;20084;-88
2023/02/28 00:42:05;;;;;;;4.35;3.35;;;;;;;7.25;72.47;101886.75;4944046;29;19978;-89
2023/02/28 00:44:30;;;;;;;6.05;3.75;;;;;;;7.23;72.32;101872.63;4918010;29;20036;-89
2023/02/28 00:46:58;;;;;;;5.53;3.80;;;;;;;7.15;72.41;101877.66;4944713;29;20070;-88
2023/02/28 00:49:23;;;;;;;5.80;3.88;;;;;;;7.21;72.44;101901.31;4936730;29;20083;-87
2023/02/28 00:51:49;;;;;;;5.97;4.03;;;;;;;7.09;72.86;101886.13;4950219;29;20055;-88
2023/02/28 00:54:17;;;;;;;6.28;4.20;;;;;;;7.16;72.87;101893.63;4956527;28;20047;-89
2023/02/28 00:56:45;;;;;;;5.45;3.70;;;;;;;7.24;72.53;101881.53;4961965;28;20016;-86
2023/02/28 00:59:13;;;;;;;5.05;3.63;;;;;;;7.38;71.65;101890.25;4940719;29;20091;-82
2023/02/28 01:01:39;;;;;;;5.15;3.78;;;;;;;7.29;72.15;101885.56;4936675;29;20035;-86
2023/02/28 01:04:08;;;;;;;6.32;3.75;;;;;;;7.17;71.91;101843.66;4955285;28;20028;-89
2023/02/28 01:06:34;;;;;;;6.35;3.88;;;;;;;7.29;71.96;101874.88;4931251;29;20150;-88
2023/02/28 01:09:02;;;;;;;5.90;3.97;;;;;;;7.19;72.26;101892.53;4943510;29;20044;-87
2023/02/28 01:11:28;;;;;;;5.28;3.80;;;;;;;7.22;72.29;101897.66;4932695;29;20287;-91
2023/02/28 01:13:54;;;;;;;7.60;3.90;;;;;;;7.17;72.33;101906.00;4950872;29;20043;-90
2023/02/28 01:16:21;;;;;;;6.50;4.47;;;;;;;7.05;73.60;101927.44;4927051;29;20059;-86
2023/02/28 01:18:48;;;;;;;5.43;4.07;;;;;;;7.21;72.56;101932.53;4946065;29;20047;-87
2023/02/28 01:21:16;;;;;;;6.50;4.15;;;;;;;7.23;72.58;101942.16;4939894;29;20059;-87
2023/02/28 01:23:42;;;;;;;6.53;4.20;;;;;;;7.32;71.45;101928.13;4919835;29;20028;-85
2023/02/28 01:26:15;;;;;;;6.13;4.53;;;;;;;7.09;71.93;101896.81;4952761;28;20066;-89
2023/02/28 01:28:41;;;;;;;6.55;4.55;;;;;;;7.10;72.84;101935.97;4952750;29;20035;-87
2023/02/28 01:31:08;;;;;;;6.63;4.75;;;;;;;7.14;72.64;101937.47;4930568;29;20050;-88
2023/02/28 01:33:33;;;;;;;7.22;4.70;;;;;;;7.20;72.28;101929.00;4945796;29;20146;-85
2023/02/28 01:36:03;;;;;;;6.93;5.03;;;;;;;7.23;71.99;101926.13;4926657;29;20067;-84
2023/02/28 01:38:28;;;;;;;7.20;5.20;;;;;;;7.25;72.13;101924.19;4943682;29;20106;-83
2023/02/28 01:40:54;;;;;;;7.65;5.22;;;;;;;7.14;72.26;101914.25;4928281;29;20472;-84
2023/02/28 01:43:24;;;;;;;7.38;5.50;;;;;;;7.06;72.52;101915.75;4929780;29;20373;-84
2023/02/28 01:45:51;;;;;;;8.20;5.55;;;;;;;6.98;73.03;101916.31;4927053;29;20111;-84
2023/02/28 01:48:16;;;;;;;;;;;;;;;6.91;73.17;101921.22;4932456;29;20043;-85
2023/02/28 01:50:43;;;;;;;7.50;5.72;;;;;;;6.62;73.91;101917.84;4907758;29;19997;-84
2023/02/28 01:53:12;;;;;;;8.32;5.95;;;;;;;6.69;73.97;101915.63;4889683;29;20028;-83
2023/02/28 01:55:37;;;;;;;7.97;5.57;;;;;;;6.86;73.63;101930.50;4910474;29;20032;-85
2023/02/28 01:58:04;;;;;;;8.20;5.85;;;;;;;6.98;73.21;101927.00;4921840;29;20047;-86
2023/02/28 02:00:30;;;;;;;7.57;5.35;;;;;;;6.77;72.83;101905.28;4898709;29;20337;-86
2023/02/28 02:03:00;;;;;;;7.68;5.22;;;;;;;6.88;73.13;101941.94;4939260;29;20050;-85
2023/02/28 02:05:28;;;;;;;7.57;5.65;;;;;;;6.91;73.19;101950.63;4911788;29;20055;-83
2023/02/28 02:07:55;;;;;;;7.80;5.40;;;;;;;6.89;73.18;101933.84;4917642;29;20035;-83
2023/02/28 02:10:21;;;;;;;7.93;5.45;;;;;;;6.95;73.07;101916.50;4899229;29;20028;-82
2023/02/28 02:13:24;;;;;;;8.05;5.32;;;;;;;6.95;72.78;101922.72;4921102;29;20070;-84
2023/02/28 02:15:58;;;;;;;8.25;5.20;;;;;;;6.87;73.28;101934.91;4927712;29;20063;-85
2023/02/28 02:18:59;;;;;;;6.13;4.50;;;;;;;6.86;72.35;101942.06;4924636;29;20035;-84
2023/02/28 02:21:32;;;;;;;7.68;4.80;;;;;;;6.94;72.50;101962.94;4916350;29;20090;-86
2023/02/28 02:24:16;;;;;;;5.60;4.32;;;;;;;6.95;72.43;101952.13;4930054;29;20557;-84
2023/02/28 02:27:09;;;;;;;7.78;4.20;;;;;;;7.02;72.06;101946.34;4933543;29;20031;-85
2023/02/28 02:29:43;;;;;;;6.57;4.38;;;;;;;6.90;71.98;101930.19;4933731;29;20063;-83
2023/02/28 02:32:14;;;;;;;6.90;4.32;;;;;;;6.81;72.33;101925.47;4907902;29;20116;-84
2023/02/28 02:34:45;;;;;;;5.38;4.38;;;;;;;6.82;72.57;101927.19;4942532;29;20078;-84
2023/02/28 02:37:28;;;;;;;7.35;4.43;;;;;;;6.61;72.92;101932.19;4904870;29;20048;-84
2023/02/28 02:39:56;;;;;;;5.85;4.35;;;;;;;6.67;72.95;101933.56;4943938;29;20032;-87
2023/02/28 02:42:31;;;;;;;6.38;4.60;;;;;;;6.38;73.34;101892.81;4940902;29;20031;-86
2023/02/28 02:45:35;;;;;;;5.68;4.30;;;;;;;6.60;73.17;101919.78;4955234;29;20038;-85
2023/02/28 02:48:03;;;;;;;6.25;4.13;;;;;;;6.65;73.07;101943.50;4911197;29;20094;-83
2023/02/28 02:50:35;;;;;;;5.50;3.80;;;;;;;6.70;73.20;101969.00;4888655;29;20043;-85
2023/02/28 02:53:02;;;;;;;5.38;4.03;;;;;;;6.69;73.12;101961.06;4920437;29;20146;-84
2023/02/28 02:55:31;;;;;;;7.10;4.30;;;;;;;6.84;72.83;101949.34;4902476;29;20051;-86
2023/02/28 02:58:04;;;;;;;5.40;3.88;;;;;;;6.93;72.34;101930.00;4918094;29;20084;-84
2023/02/28 03:00:45;;;;;;;5.55;3.85;;;;;;;6.95;71.67;101938.75;4893316;29;20034;-85
2023/02/28 03:03:12;;;;;;;4.80;3.58;;;;;;;6.77;71.33;101918.66;4904447;29;20043;-86
2023/02/28 03:05:49;;;;;;;5.25;3.67;;;;;;;6.81;72.03;101935.31;4902786;29;20035;-84
2023/02/28 03:08:15;;;;;;;4.85;3.45;;;;;;;6.78;71.96;101955.09;4913147;29;20039;-87
2023/02/28 03:10:42;;;;;;;6.25;3.58;;;;;;;6.76;71.63;101951.66;4895091;29;20036;-85
2023/02/28 03:13:20;;;;;;;4.55;3.45;;;;;;;6.92;70.97;101971.03;4907538;29;20071;-88
2023/02/28 03:16:13;;;;;;;5.45;3.20;;;;;;;6.90;71.33;101978.31;4931966;29;20112;-88
2023/02/28 03:19:10;;;;;;;4.65;3.15;;;;;;;6.96;71.21;101996.63;4937767;29;20054;-85
2023/02/28 03:21:42;;;;;;;4.75;3.30;;;;;;;6.86;71.49;101997.34;4908568;29;20043;-85
2023/02/28 03:24:15;;;;;;;4.75;3.47;;;;;;;6.78;70.85;101989.00;4903897;29;20039;-84
2023/02/28 03:26:43;;;;;;;4.93;3.33;;;;;;;6.85;70.95;101972.41;4897859;29;20038;-86
2023/02/28 03:29:37;;;;;;;4.90;3.50;;;;;;;6.79;71.14;101959.50;4887608;29;20134;-87
2023/02/28 03:32:58;;;;;;;4.80;3.70;;;;;;;6.51;71.96;101955.16;4903211;29;20063;-86
2023/02/28 03:35:36;;;;;;;5.25;3.75;;;;;;;6.45;72.35;101958.22;4838399;29;20214;-88
2023/02/28 03:39:05;;;;;;;5.18;3.95;;;;;;;6.29;72.58;101935.19;4919902;29;20040;-87
2023/02/28 03:45:17;;;;;;;6.20;4.03;;;;;;;6.03;73.52;101934.25;4853686;29;20050;-87
2023/02/28 03:48:01;;;;;;;6.80;4.90;;;;;;;6.15;73.98;101967.31;4875050;29;20056;-89
2023/02/28 03:50:31;;;;;;;6.38;4.68;;;;;;;6.10;74.01;101983.63;4903630;29;20524;-88
2023/02/28 03:53:25;;;;;;;6.75;4.82;;;;;;;6.07;74.21;101988.31;4938690;29;20078;-88
2023/02/28 03:56:18;;;;;;;6.97;4.70;;;;;;;6.07;74.51;101999.00;4913447;29;20039;-86
2023/02/28 03:59:13;;;;;;;6.68;4.65;;;;;;;6.20;74.12;102005.25;4949272;28;20067;-89
2023/02/28 04:01:41;;;;;;;7.25;4.75;;;;;;;6.24;73.23;102005.91;4923708;29;20167;-88
2023/02/28 04:04:08;;;;;;;7.63;4.60;;;;;;;6.22;73.55;101997.13;4911955;29;21701;-86
2023/02/28 04:06:37;;;;;;;6.60;4.70;;;;;;;6.28;73.46;102004.75;4923578;29;20032;-87
2023/02/28 04:09:05;;;;;;;7.25;5.03;;;;;;;6.30;73.42;102000.19;4913698;29;20054;-86
2023/02/28 04:12:01;;;;;;;6.75;4.88;;;;;;;6.34;72.89;101969.63;4900727;29;20036;-86
2023/02/28 04:14:28;;;;;;;6.90;4.85;;;;;;;6.29;73.11;101987.78;4944343;28;20062;-84
2023/02/28 04:16:53;;;;;;;7.30;5.00;;;;;;;6.39;72.94;101980.88;4933554;29;20066;-81
2023/02/28 04:19:19;;;;;;;7.60;4.87;;;;;;;6.27;72.67;101987.84;4904979;29;20036;-81
2023/02/28 04:21:49;;;;;;;6.90;5.00;;;;;;;6.31;72.83;101993.88;4924528;29;20066;-83
2023/02/28 04:24:22;;;;;;;9.43;5.43;;;;;;;6.46;72.56;101994.66;4929704;29;20044;-84
2023/02/28 04:26:49;;;;;;;7.82;5.45;;;;;;;6.38;72.17;101972.97;4928662;29;20046;-84
2023/02/28 04:29:24;;;;;;;7.85;5.00;;;;;;;6.45;72.24;101983.13;4920020;29;20035;-84
2023/02/28 04:31:53;;;;;;;7.68;5.10;;;;;;;6.36;72.26;101967.72;4902069;29;20527;-87
2023/02/28 04:34:19;;;;;;;7.30;5.10;;;;;;;6.35;72.32;101971.34;4921947;29;20035;-86
2023/02/28 04:36:45;;;;;;;7.03;5.28;;;;;;;6.41;72.14;101986.09;4930757;29;20047;-84
2023/02/28 04:39:13;;;;;;;9.95;4.97;;;;;;;6.38;72.14;101976.47;4901240;29;20034;-85
2023/02/28 04:41:39;;;;;;;7.22;5.30;;;;;;;6.17;72.73;101964.53;4914526;29;20047;-85
2023/02/28 04:44:06;;;;;;;7.67;4.97;;;;;;;6.30;72.51;101958.31;4935048;29;20035;-87
2023/02/28 04:46:34;;;;;;;7.60;5.25;;;;;;;6.19;73.05;101959.97;4918358;29;20363;-84
2023/02/28 04:49:15;;;;;;;8.27;5.28;;;;;;;6.33;73.03;101967.91;4900379;29;20047;-89
2023/02/28 04:51:49;;;;;;;11.05;5.70;;;;;;;6.20;73.44;101945.63;4905132;29;20044;-87
2023/02/28 04:54:19;;;;;;;10.10;5.82;;;;;;;5.96;73.56;101922.25;4913075;29;20043;-89
2023/02/28 04:57:14;;;;;;;10.52;5.78;;;;;;;6.29;73.52;101977.94;4944448;29;20032;-83
2023/02/28 04:59:40;;;;;;;8.93;6.27;;;;;;;6.29;73.44;101959.25;4938010;29;20035;-86
2023/02/28 05:02:28;;;;;;;11.65;6.18;;;;;;;6.34;73.00;101954.47;4937393;29;20024;-87
2023/02/28 05:04:54;;;;;;;10.32;5.93;;;;;;;6.24;73.19;101941.81;4936127;29;20461;-87
2023/02/28 05:07:25;;;;;;;12.80;6.50;;;;;;;6.41;73.35;101973.59;4952574;29;20050;-87
2023/02/28 05:10:20;;;;;;;10.13;6.65;;;;;;;5.99;74.28;101962.09;4939040;29;20135;-86
2023/02/28 05:12:46;;;;;;;11.52;6.50;;;;;;;6.20;73.56;101945.63;4940790;29;20031;-86
2023/02/28 05:15:41;;;;;;;11.02;7.15;;;;;;;6.37;73.51;101969.44;4939095;29;20039;-86
2023/02/28 05:18:10;;;;;;;11.77;7.53;;;;;;;6.20;73.48;101945.63;4902384;29;20043;-87
2023/02/28 05:20:39;;;;;;;16.67;7.22;;;;;;;6.34;73.49;101961.59;4923679;29;20491;-84
2023/02/28 05:23:25;;;;;;;12.20;7.47;;;;;;;6.51;73.96;101998.75;4892077;29;20099;-85
2023/02/28 05:26:02;;;;;;;14.15;8.30;;;;;;;6.32;73.67;101971.53;4928830;29;20039;-84
2023/02/28 05:28:37;;;;;;;12.35;7.60;;;;;;;6.22;73.75;101960.59;4913096;29;20043;-87
2023/02/28 05:31:03;;;;;;;14.65;8.20;;;;;;;6.30;74.26;101989.50;4916112;29;20051;-88
2023/02/28 05:33:29;;;;;;;13.75;8.02;;;;;;;6.07;74.69;101967.81;4918081;29;20508;-86
2023/02/28 05:35:56;;;;;;;13.93;8.63;;;;;;;6.09;74.85;101976.59;4931537;29;20123;-88
2023/02/28 05:38:22;;;;;;;26.00;13.95;;;;;;;6.10;75.52;102004.13;4914566;29;20082;-89
2023/02/28 05:40:48;;;;;;;18.67;10.05;;;;;;;6.08;75.55;102017.56;4897031;29;20043;-88
2023/02/28 05:43:14;;;;;;;12.70;8.02;;;;;;;6.32;75.64;102065.03;4920672;29;20135;-87
2023/02/28 05:45:42;;;;;;;18.50;9.73;;;;;;;6.19;75.46;102042.75;4888506;29;20036;-87
2023/02/28 05:48:08;;;;;;;16.48;8.65;;;;;;;6.40;74.52;102072.56;4923651;29;20109;-87
2023/02/28 05:50:34;;;;;;;14.60;8.73;;;;;;;6.45;74.35;102063.28;4909794;29;20024;-87
2023/02/28 05:53:00;;;;;;;15.13;9.02;;;;;;;6.55;74.06;102075.09;4934464;29;20181;-87
2023/02/28 05:55:26;;;;;;;15.60;9.32;;;;;;;6.49;74.25;102062.13;4916217;29;20127;-88
2023/02/28 05:57:51;;;;;;;17.50;10.43;;;;;;;6.57;74.91;102060.75;4897215;29;20047;-87
2023/02/28 06:00:18;;;;;;;19.17;10.95;;;;;;;6.63;75.05;102068.41;4892801;29;20052;-88
2023/02/28 06:02:45;;;;;;;18.35;10.35;;;;;;;6.44;76.63;102050.88;4921782;29;20063;-86
2023/02/28 06:05:15;;;;;;;17.73;9.82;;;;;;;5.90;78.22;102032.09;4913942;29;20428;-82
2023/02/28 06:07:41;;;;;;;17.30;10.15;;;;;;;5.78;80.09;102047.03;4925208;29;20054;-83
2023/02/28 06:10:07;;;;;;;19.40;10.70;;;;;;;5.79;81.41;102090.63;4913826;29;20118;-81
2023/02/28 06:12:32;;;;;;;20.90;11.07;;;;;;;5.50;82.36;102069.22;4915538;29;20114;-81
2023/02/28 06:14:58;;;;;;;18.58;10.43;;;;;;;5.29;82.80;102037.59;4929056;29;20122;-82
2023/02/28 06:17:23;;;;;;;19.87;10.00;;;;;;;5.73;82.54;102089.16;4901597;29;20484;-82
2023/02/28 06:19:49;;;;;;;20.77;11.17;;;;;;;5.74;82.59;102092.72;4917416;29;20058;-82
2023/02/28 06:22:14;;;;;;;17.97;9.87;;;;;;;5.72;83.21;102091.00;4931212;29;20676;-83
2023/02/28 06:24:41;;;;;;;20.00;11.00;;;;;;;5.55;83.50;102045.81;4933822;29;20034;-79
2023/02/28 06:27:09;;;;;;;17.63;9.00;;;;;;;5.85;83.43;102075.09;4936050;29;20043;-81
2023/02/28 06:29:37;;;;;;;19.60;11.15;;;;;;;5.76;83.67;102070.31;4930003;29;20074;-79
2023/02/28 06:32:03;;;;;;;19.70;10.38;;;;;;;5.75;84.15;102070.41;4906978;29;20471;-80
2023/02/28 06:34:33;;;;;;;20.77;10.73;;;;;;;5.89;84.32;102067.72;4919586;29;20031;-82
2023/02/28 06:37:01;;;;;;;16.98;8.98;;;;;;;5.97;83.07;102070.81;4915082;29;20103;-84
2023/02/28 06:39:30;;;;;;;16.08;9.13;;;;;;;6.04;81.10;102080.16;4893818;29;20162;-83
2023/02/28 06:41:57;;;;;;;17.27;9.10;;;;;;;6.01;81.56;102075.00;4890551;29;20080;-84
2023/02/28 06:44:23;;;;;;;19.42;10.07;;;;;;;5.95;81.76;102054.03;4928756;29;20039;-83
2023/02/28 06:46:49;;;;;;;15.88;8.57;;;;;;;5.93;80.72;102051.44;4903764;29;20107;-81
2023/02/28 06:49:17;;;;;;;15.55;8.32;;;;;;;6.05;81.11;102059.66;4900283;29;20059;-82
2023/02/28 06:51:45;;;;;;;14.65;8.52;;;;;;;6.07;80.56;102063.94;4907761;29;20123;-81
2023/02/28 06:54:12;;;;;;;14.77;8.52;;;;;;;6.07;81.54;102074.63;4916373;29;20031;-84
2023/02/28 06:56:38;;;;;;;14.55;8.70;;;;;;;5.91;81.98;102063.16;4885710;29;20038;-84
2023/02/28 06:59:03;;;;;;;19.90;9.67;;;;;;;6.09;82.71;102062.03;4917375;29;20123;-82
2023/02/28 07:01:32;;;;;;;14.32;8.25;;;;;;;5.96;81.98;102029.03;4911934;29;20315;-84
2023/02/28 07:03:59;;;;;;;13.98;7.90;;;;;;;6.32;81.00;102067.69;4931364;29;20035;-82
2023/02/28 07:06:25;;;;;;;13.85;7.95;;;;;;;6.35;80.41;102072.84;4924060;29;20040;-79
2023/02/28 07:08:52;;;;;;;16.27;9.00;;;;;;;6.41;80.22;102067.09;4913216;29;20140;-80
2023/02/28 07:11:20;;;;;;;15.40;8.75;;;;;;;6.49;80.02;102071.97;4925555;29;20146;-81
2023/02/28 07:13:47;;;;;;;13.77;8.30;;;;;;;6.46;79.89;102074.81;4890605;29;20070;-91
2023/02/28 07:16:14;;;;;;;12.73;7.88;;;;;;;6.58;80.34;102081.16;4916429;29;20114;-80
2023/02/28 07:18:40;;;;;;;14.10;7.88;;;;;;;6.62;79.08;102082.69;4896661;29;20039;-81
2023/02/28 07:21:07;;;;;;;12.73;7.65;;;;;;;6.57;79.54;102080.31;4930535;29;20416;-78
2023/02/28 07:23:35;;;;;;;12.60;7.75;;;;;;;6.57;79.29;102084.81;4897702;29;20031;-80
2023/02/28 07:26:00;;;;;;;12.30;7.95;;;;;;;6.36;78.93;102045.16;4896659;29;20114;-80
2023/02/28 07:28:27;;;;;;;12.03;7.13;;;;;;;6.34;77.71;102087.16;4877325;29;20145;-85
2023/02/28 07:30:52;;;;;;;;;;;;;;;6.37;78.91;102086.97;4923214;29;20307;-86
2023/02/28 07:33:19;;;;;;;11.30;7.22;;;;;;;6.28;79.14;102071.53;4933981;29;19966;-82
2023/02/28 07:35:46;;;;;;;11.88;7.03;;;;;;;6.11;80.61;102069.91;4943527;29;20099;-81
2023/02/28 07:38:15;;;;;;;13.38;7.32;;;;;;;6.19;79.87;102067.63;4915187;29;20085;-80
2023/02/28 07:40:40;;;;;;;12.35;7.45;;;;;;;6.25;80.33;102055.69;4923149;29;20139;-84
2023/02/28 07:43:06;;;;;;;16.83;6.87;;;;;;;6.33;79.54;102064.09;4932021;29;20043;-85
2023/02/28 07:45:34;;;;;;;15.90;8.00;;;;;;;6.28;80.12;102055.50;4898256;29;20288;-81
2023/02/28 07:48:00;;;;;;;12.15;7.40;;;;;;;6.22;80.09;102047.88;4913656;29;20383;-78
2023/02/28 07:50:30;;;;;;;15.02;8.25;;;;;;;6.16;79.84;102064.28;4926479;29;20035;-83
2023/02/28 07:53:10;;;;;;;11.98;7.40;;;;;;;6.19;80.03;102072.97;4889836;29;20036;-85
2023/02/28 07:55:36;;;;;;;11.15;7.18;;;;;;;6.25;80.17;102061.91;4924398;29;20098;-83
2023/02/28 07:58:02;;;;;;;12.90;6.47;;;;;;;6.10;79.34;102077.09;4919663;29;20036;-78
2023/02/28 08:00:29;;;;;;;13.60;6.63;;;;;;;6.09;80.09;102071.84;4929627;29;20031;-78
2023/02/28 08:02:55;;;;;;;12.68;6.78;;;;;;;6.27;79.71;102085.84;4930662;29;20385;-76
2023/02/28 08:05:21;;;;;;;13.25;7.00;;;;;;;6.38;80.86;102093.16;4914375;29;20038;-77
2023/02/28 08:07:47;;;;;;;11.57;6.45;;;;;;;6.34;79.66;102092.50;4924747;29;20044;-76
2023/02/28 08:10:16;;;;;;;11.60;7.07;;;;;;;6.52;79.18;102095.81;4897807;29;20179;-80
2023/02/28 08:12:41;;;;;;;11.48;6.60;;;;;;;6.73;79.40;102110.44;4913029;29;20493;-78
2023/02/28 08:15:10;;;;;;;22.17;13.80;;;;;;;6.65;78.94;102104.75;4931277;29;20052;-77
2023/02/28 08:17:38;;;;;;;11.15;6.80;;;;;;;6.67;78.07;102109.97;4927061;29;20298;-77
2023/02/28 08:20:05;;;;;;;10.18;6.00;;;;;;;6.37;76.56;102064.72;4910588;29;20119;-79
2023/02/28 08:22:30;;;;;;;10.65;6.32;;;;;;;6.70;76.43;102104.44;4897147;29;20528;-80
2023/02/28 08:24:57;;;;;;;12.60;6.63;;;;;;;6.70;76.70;102113.31;4929620;29;20067;-83
2023/02/28 08:27:23;;;;;;;10.93;6.85;;;;;;;6.75;77.31;102113.00;4889619;29;20067;-82
2023/02/28 08:29:49;;;;;;;11.60;6.72;;;;;;;6.49;76.94;102077.31;4909185;29;20377;-82
2023/02/28 08:32:15;;;;;;;10.40;6.97;;;;;;;6.43;76.83;102117.78;4887478;29;20046;-82
2023/02/28 08:34:40;;;;;;;9.70;6.65;;;;;;;6.40;77.34;102108.13;4900757;29;20412;-82
2023/02/28 08:37:06;;;;;;;11.38;7.07;;;;;;;6.50;77.90;102116.41;4913592;29;20066;-81
2023/02/28 08:39:35;;;;;;;9.38;6.82;;;;;;;6.31;77.85;102098.03;4885091;29;20114;-83
2023/02/28 08:42:01;;;;;;;15.75;7.93;;;;;;;6.32;77.56;102102.41;4906262;29;20473;-83
2023/02/28 08:44:32;;;;;;;11.35;7.45;;;;;;;6.32;78.43;102119.31;4916027;29;20051;-82
2023/02/28 08:47:01;;;;;;;11.45;7.45;;;;;;;6.33;78.02;102122.84;4911406;29;20062;-82
2023/02/28 08:52:24;;;;;;;11.20;6.55;;;;;;;6.22;77.69;102077.25;4894129;29;20052;-84
2023/02/28 08:55:08;;;;;;;;;;;;;;;;;;;;;
2023/02/28 08:57:37;;;;;;;13.23;7.20;;;;;;;6.46;77.65;102096.19;4924017;29;20099;-82
2023/02/28 09:00:07;;;;;;;10.40;6.70;;;;;;;6.55;76.73;102112.50;4931479;29;20035;-83
2023/02/28 09:02:35;;;;;;;10.63;6.70;;;;;;;6.73;76.67;102126.47;4904857;29;20107;-83
2023/02/28 09:05:02;;;;;;;9.85;6.45;;;;;;;6.65;76.11;102095.84;4930588;29;20087;-82
2023/02/28 09:07:35;;;;;;;10.05;6.63;;;;;;;6.90;76.42;102116.47;4914673;29;20034;-84
2023/02/28 09:10:02;;;;;;;13.98;7.40;;;;;;;6.86;75.88;102105.16;4912840;29;20426;-83
2023/02/28 09:12:29;;;;;;;12.32;7.30;;;;;;;6.78;77.07;102079.88;4901969;29;20059;-83
2023/02/28 09:14:55;;;;;;;12.82;8.05;;;;;;;6.90;78.07;102073.69;4914553;29;20155;-83
2023/02/28 09:17:21;;;;;;;11.10;7.30;;;;;;;7.05;76.50;102074.50;4914527;29;20036;-82
2023/02/28 09:19:48;;;;;;;12.05;7.18;;;;;;;7.13;76.43;102080.19;4938612;29;20043;-81
2023/02/28 09:22:14;;;;;;;11.20;6.55;;;;;;;7.29;75.47;102090.72;4903440;29;20043;-82
2023/02/28 09:24:40;;;;;;;11.68;7.00;;;;;;;7.51;75.43;102084.72;4941870;29;20437;-83
2023/02/28 09:27:06;;;;;;;10.02;6.00;;;;;;;7.42;73.25;102085.34;4916528;29;20078;-83
2023/02/28 09:29:32;;;;;;;9.27;6.40;;;;;;;7.26;72.90;102074.84;4906767;29;20047;-82
2023/02/28 09:31:59;;;;;;;10.88;6.00;;;;;;;7.45;73.13;102107.44;4915479;29;20055;-83
2023/02/28 09:34:26;;;;;;;10.60;6.78;;;;;;;7.45;73.87;102096.72;4931753;29;20127;-84
2023/02/28 09:36:59;;;;;;;10.70;6.38;;;;;;;7.46;72.81;102109.13;4909982;29;20048;-83
2023/02/28 09:39:26;;;;;;;11.15;7.18;;;;;;;7.39;73.62;102108.69;4888312;29;20043;-83
2023/02/28 09:41:52;;;;;;;11.85;6.90;;;;;;;7.30;74.58;102113.81;4902946;29;20043;-82
2023/02/28 09:44:41;;;;;;;12.57;7.45;;;;;;;7.34;74.84;102109.97;4906064;29;20338;-83
2023/02/28 09:47:27;;;;;;;10.50;6.80;;;;;;;7.28;74.78;102103.22;4886545;29;20036;-83
2023/02/28 09:49:54;;;;;;;9.18;6.60;;;;;;;7.21;73.38;102109.97;4889629;29;20552;-82
2023/02/28 09:52:21;;;;;;;9.82;6.15;;;;;;;7.38;72.65;102112.34;4895177;29;20035;-83
2023/02/28 09:54:51;;;;;;;9.98;6.65;;;;;;;7.27;73.14;102130.94;4899470;29;20058;-82
2023/02/28 09:57:40;;;;;;;11.38;6.80;;;;;;;7.47;73.47;102137.63;4906710;29;20035;-83
2023/02/28 10:00:18;;;;;;;9.18;5.85;;;;;;;7.30;73.10;102141.41;4917565;29;20066;-82
2023/02/28 10:03:02;;;;;;;8.73;6.15;;;;;;;7.37;73.17;102142.75;4886975;29;20048;-84
2023/02/28 10:06:03;;;;;;;10.38;6.88;;;;;;;7.57;73.10;102137.84;4928848;29;20047;-82
2023/02/28 10:08:53;;;;;;;13.70;7.72;;;;;;;7.55;72.66;102145.13;4910413;29;20455;-83
2023/02/28 10:11:23;;;;;;;10.02;6.40;;;;;;;7.43;71.58;102135.25;4912071;29;20501;-83
2023/02/28 10:14:02;;;;;;;8.60;5.47;;;;;;;7.46;71.72;102135.88;4912637;29;20042;-87
2023/02/28 10:16:44;;;;;;;9.38;5.70;;;;;;;7.00;71.90;102127.41;4935633;29;20366;-87
2023/02/28 10:19:22;;;;;;;7.65;5.22;;;;;;;6.69;72.85;102110.72;4907477;29;20032;-88
2023/02/28 10:22:28;;;;;;;10.07;5.55;;;;;;;6.68;73.23;102106.34;4937973;29;20054;-87
2023/02/28 10:25:02;;;;;;;12.02;6.15;;;;;;;6.76;75.25;102120.06;4919010;29;20496;-85
2023/02/28 10:27:53;;;;;;;7.90;5.60;;;;;;;6.57;73.42;102087.50;4926487;29;20056;-87
2023/02/28 10:30:33;;;;;;;11.95;6.50;;;;;;;6.64;73.51;102083.47;4922503;29;20036;-88
2023/02/28 10:33:36;;;;;;;9.10;6.00;;;;;;;6.96;73.44;102113.41;4906039;29;20056;-86
2023/02/28 10:37:07;;;;;;;11.15;6.03;;;;;;;6.83;73.21;102078.59;4947518;29;20075;-89
2023/02/28 10:43:06;;;;;;;8.73;5.72;;;;;;;6.83;73.03;102083.94;4931137;29;20071;-85
2023/02/28 10:45:40;;;;;;;16.33;8.73;;;;;;;6.70;73.50;102081.25;4944893;29;20026;-85
2023/02/28 10:48:21;;;;;;;14.32;7.90;;;;;;;6.96;73.42;102092.88;4911942;29;20039;-85
2023/02/28 10:50:47;;;;;;;8.13;5.75;;;;;;;6.74;73.60;102069.41;4923810;29;20048;-82
2023/02/28 10:53:33;;;;;;;9.52;6.20;;;;;;;6.80;74.01;102092.19;4932328;29;20146;-80
2023/02/28 10:56:13;;;;;;;7.78;5.60;;;;;;;6.73;74.28;102086.38;4938961;29;20535;-81
2023/02/28 10:59:03;;;;;;;13.63;6.20;;;;;;;6.73;74.76;102078.34;4912271;29;20040;-82
2023/02/28 11:01:38;;;;;;;11.98;5.72;;;;;;;6.69;73.95;102067.97;4921215;29;20034;-81
2023/02/28 11:04:39;;;;;;;9.10;6.00;;;;;;;6.76;74.41;102062.09;4917852;29;20078;-81
2023/02/28 11:07:13;;;;;;;9.88;6.32;;;;;;;6.94;74.07;102068.06;4916440;29;20040;-81
2023/02/28 11:09:42;;;;;;;11.75;6.18;;;;;;;7.02;74.37;102050.63;4917360;29;20095;-81
2023/02/28 11:12:17;;;;;;;9.90;6.32;;;;;;;6.89;73.05;102046.13;4908653;29;20084;-81
2023/02/28 11:15:04;;;;;;;10.23;6.72;;;;;;;7.13;73.76;102070.34;4915166;29;20047;-81
2023/02/28 11:17:32;;;;;;;17.02;9.68;;;;;;;7.37;72.82;102077.66;4934539;29;20035;-80
2023/02/28 11:20:06;;;;;;;13.07;6.25;;;;;;;7.34;72.18;102051.97;4921020;29;20082;-81
2023/02/28 11:22:35;;;;;;;14.68;7.68;;;;;;;7.21;71.79;102035.06;4923559;29;20446;-81
2023/02/28 11:25:03;;;;;;;10.35;6.43;;;;;;;7.56;72.49;102063.84;4918328;29;20107;-80
2023/02/28 11:27:31;;;;;;;11.13;6.25;;;;;;;7.57;72.10;102068.25;4913004;29;20162;-81
2023/02/28 11:29:57;;;;;;;10.63;7.03;;;;;;;7.21;72.51;102053.78;4916357;29;20087;-82
2023/02/28 11:32:28;;;;;;;11.35;6.75;;;;;;;7.23;73.15;102053.66;4912057;29;20040;-81
2023/02/28 11:35:09;;;;;;;10.20;6.35;;;;;;;6.98;73.85;102053.53;4916937;29;20353;-82
2023/02/28 11:37:34;;;;;;;8.65;5.88;;;;;;;6.79;73.99;102029.00;4928307;29;20031;-82
2023/02/28 11:40:03;;;;;;;9.20;6.20;;;;;;;6.91;74.11;102036.19;4916536;29;20097;-81
2023/02/28 11:42:39;;;;;;;11.90;6.53;;;;;;;6.97;74.01;102054.47;4921471;29;20099;-81
2023/02/28 11:45:17;;;;;;;12.90;6.80;;;;;;;6.84;74.54;102020.66;4911325;29;20111;-81
2023/02/28 11:47:56;;;;;;;13.60;7.07;;;;;;;6.98;74.77;102025.94;4932990;29;20110;-82
2023/02/28 11:50:40;;;;;;;10.55;6.85;;;;;;;7.22;74.33;102038.59;4931199;29;20103;-81
2023/02/28 11:53:24;;;;;;;11.48;6.63;;;;;;;6.85;73.60;102009.84;4898412;29;20216;-81
2023/02/28 11:55:59;;;;;;;10.32;6.40;;;;;;;7.17;73.13;102038.91;4914945;29;20038;-81
2023/02/28 11:59:01;;;;;;;10.00;6.55;;;;;;;7.32;73.12;102029.81;4921900;29;20592;-82
2023/02/28 12:01:31;;;;;;;8.65;5.95;;;;;;;7.16;72.37;102023.78;4925026;29;20039;-81
2023/02/28 12:04:35;;;;;;;8.68;5.95;;;;;;;6.92;72.46;102019.16;4929996;29;20091;-82